Time;durP1;ratioP1;P1;durP2;ratioP2;P2;SDS_P1;SDS_P2;PMS_P1;PMS_P2;Temp;Humidity;BMP_temperature;BMP_pressure;BME280_temperature;BME280_humidity;BME280_pressure;Samples;Min_cycle;Max_cycle;Signal;HPM_P1;HPM_P2
2022/10/22 00:02:18;;;;;;;0.90;0.90;;;12.10;99.90;;;;;;5067908;28;20231;-63
2022/10/22 00:04:44;;;;;;;3.37;1.07;;;12.10;99.90;;;;;;5069534;28;20206;-62
2022/10/22 00:07:10;;;;;;;1.27;0.90;;;12.10;99.90;;;;;;5067602;28;20460;-62
2022/10/22 00:09:35;;;;;;;2.10;1.20;;;12.10;99.90;;;;;;5065247;28;20919;-63
2022/10/22 00:12:01;;;;;;;4.77;1.10;;;12.10;99.90;;;;;;5069249;28;20170;-61
2022/10/22 00:14:27;;;;;;;1.10;1.00;;;12.00;99.90;;;;;;5067364;28;20769;-61
2022/10/22 00:16:52;;;;;;;1.63;0.90;;;12.00;99.90;;;;;;5070370;28;20512;-62
2022/10/22 00:19:18;;;;;;;3.50;1.00;;;12.00;99.90;;;;;;5065707;28;20519;-61
2022/10/22 00:21:44;;;;;;;4.10;1.37;;;12.00;99.90;;;;;;5064493;28;20257;-63
2022/10/22 00:24:09;;;;;;;1.30;1.20;;;12.00;99.90;;;;;;5068162;28;20210;-62
2022/10/22 00:26:35;;;;;;;5.00;1.13;;;12.10;99.90;;;;;;5065790;28;20210;-62
2022/10/22 00:29:00;;;;;;;1.27;1.10;;;12.00;99.90;;;;;;5065655;28;20182;-60
2022/10/22 00:31:26;;;;;;;2.70;1.30;;;12.00;99.90;;;;;;5068492;28;20587;-63
2022/10/22 00:33:51;;;;;;;1.53;1.10;;;12.00;99.90;;;;;;5066312;28;20190;-62
2022/10/22 00:36:17;;;;;;;2.30;1.20;;;12.00;99.90;;;;;;5068308;28;20267;-62
2022/10/22 00:38:43;;;;;;;2.70;1.40;;;12.00;99.90;;;;;;5063785;28;20599;-62
2022/10/22 00:41:08;;;;;;;4.50;1.33;;;12.00;99.90;;;;;;5067610;28;20179;-62
2022/10/22 00:43:53;;;;;;;2.03;1.27;;;12.00;99.90;;;;;;5065891;28;20182;-62
2022/10/22 00:46:19;;;;;;;2.83;1.30;;;12.00;99.90;;;;;;5063238;28;20739;-62
2022/10/22 00:48:44;;;;;;;4.37;1.30;;;12.00;99.90;;;;;;5069407;28;20428;-62
2022/10/22 00:51:10;;;;;;;1.37;1.10;;;12.00;99.90;;;;;;5069510;28;20201;-62
2022/10/22 00:53:44;;;;;;;1.40;1.20;;;12.00;99.90;;;;;;5068619;28;20244;-62
2022/10/22 00:56:10;;;;;;;1.57;1.20;;;12.00;99.90;;;;;;5060159;28;20178;-62
2022/10/22 00:58:41;;;;;;;2.50;1.17;;;12.00;99.90;;;;;;5068257;28;20429;-62
2022/10/22 01:01:11;;;;;;;1.87;1.27;;;12.00;99.90;;;;;;5063416;28;20555;-62
2022/10/22 01:03:36;;;;;;;1.30;1.20;;;12.00;99.90;;;;;;5069378;28;20444;-62
2022/10/22 01:06:03;;;;;;;1.43;1.10;;;12.00;99.90;;;;;;5069061;28;20971;-62
2022/10/22 01:09:04;;;;;;;2.90;1.20;;;12.00;99.90;;;;;;5069050;28;20182;-62
2022/10/22 01:11:54;;;;;;;1.67;1.40;;;12.00;99.90;;;;;;5054109;28;20432;-62
2022/10/22 01:14:34;;;;;;;1.20;1.10;;;12.00;99.90;;;;;;5066954;28;20471;-62
2022/10/22 01:17:03;;;;;;;1.20;1.10;;;12.00;99.90;;;;;;5073794;28;20447;-61
2022/10/22 01:19:35;;;;;;;1.30;1.03;;;12.00;99.90;;;;;;5069858;28;20497;-62
2022/10/22 01:22:49;;;;;;;1.27;1.00;;;11.90;99.90;;;;;;5064852;28;20428;-62
2022/10/22 01:25:33;;;;;;;2.03;1.30;;;11.90;99.90;;;;;;5027814;28;20450;-62
2022/10/22 01:28:21;;;;;;;2.30;1.20;;;11.90;99.90;;;;;;5066736;28;20433;-62
2022/10/22 01:30:51;;;;;;;1.03;0.90;;;11.90;99.90;;;;;;5066372;28;20411;-63
2022/10/22 01:33:20;;;;;;;2.90;1.20;;;11.90;99.90;;;;;;5068035;28;20496;-62
2022/10/22 01:35:45;;;;;;;1.40;1.30;;;11.90;99.90;;;;;;5070202;28;20416;-62
2022/10/22 01:38:19;;;;;;;2.20;1.30;;;11.90;99.90;;;;;;5065041;28;20523;-62
2022/10/22 01:40:46;;;;;;;2.30;1.10;;;11.90;99.90;;;;;;5064781;28;20798;-62
2022/10/22 01:43:11;;;;;;;1.63;1.10;;;11.90;99.90;;;;;;5068340;28;20443;-62
2022/10/22 01:45:59;;;;;;;2.43;1.10;;;11.90;99.90;;;;;;5065304;28;20466;-62
2022/10/22 01:48:39;;;;;;;1.50;1.10;;;11.90;99.90;;;;;;5067034;28;20720;-62
2022/10/22 01:51:23;;;;;;;1.30;1.00;;;11.90;99.90;;;;;;5069059;28;20428;-62
2022/10/22 01:53:58;;;;;;;1.00;0.90;;;11.90;99.90;;;;;;5070716;28;20441;-62
2022/10/22 01:56:29;;;;;;;1.60;1.20;;;11.90;99.90;;;;;;5065257;28;20423;-63
2022/10/22 01:59:02;;;;;;;0.93;0.90;;;11.90;99.90;;;;;;5066766;28;20490;-62
2022/10/22 02:01:54;;;;;;;1.10;1.00;;;11.90;99.90;;;;;;5063275;28;20428;-62
2022/10/22 02:04:24;;;;;;;2.03;1.00;;;11.80;99.90;;;;;;5079947;28;20456;-63
2022/10/22 02:06:53;;;;;;;0.90;0.90;;;11.90;99.90;;;;;;5068622;28;20464;-62
2022/10/22 02:09:21;;;;;;;1.83;1.00;;;11.90;99.90;;;;;;5064557;28;20425;-62
2022/10/22 02:11:49;;;;;;;1.37;1.10;;;11.90;99.90;;;;;;5067964;28;20428;-61
2022/10/22 02:14:17;;;;;;;1.10;1.10;;;11.90;99.90;;;;;;5062795;28;21053;-62
2022/10/22 02:16:44;;;;;;;1.30;1.20;;;11.90;99.90;;;;;;5061327;28;20428;-62
2022/10/22 02:19:39;;;;;;;2.83;1.40;;;11.90;99.90;;;;;;5063288;28;20534;-62
2022/10/22 02:22:05;;;;;;;5.40;0.97;;;11.90;99.90;;;;;;5057869;28;20445;-63
2022/10/22 02:24:31;;;;;;;7.90;1.97;;;11.90;99.90;;;;;;5064018;28;20492;-62
2022/10/22 02:27:25;;;;;;;1.30;1.20;;;11.90;99.90;;;;;;5066477;28;20499;-62
2022/10/22 02:30:00;;;;;;;7.43;1.10;;;11.80;99.90;;;;;;5055632;28;20171;-63
2022/10/22 02:32:30;;;;;;;5.13;1.20;;;11.90;99.90;;;;;;5063186;28;20478;-61
2022/10/22 02:34:58;;;;;;;6.70;1.30;;;11.90;99.90;;;;;;5070367;28;20543;-62
2022/10/22 02:37:26;;;;;;;2.00;1.00;;;11.90;99.90;;;;;;5066705;28;20470;-62
2022/10/22 02:39:52;;;;;;;2.63;1.20;;;11.90;99.90;;;;;;5062311;28;20474;-61
2022/10/22 02:42:18;;;;;;;1.90;1.20;;;11.80;99.90;;;;;;5065368;28;20434;-62
2022/10/22 02:44:44;;;;;;;2.20;1.13;;;11.80;99.90;;;;;;5065389;28;20440;-62
2022/10/22 02:47:09;;;;;;;1.17;1.07;;;11.80;99.90;;;;;;5067753;28;20202;-62
2022/10/22 02:49:35;;;;;;;5.73;1.37;;;11.80;99.90;;;;;;5066739;28;20206;-61
2022/10/22 02:52:00;;;;;;;1.17;1.10;;;11.80;99.90;;;;;;5067309;28;20171;-61
2022/10/22 02:54:26;;;;;;;5.53;1.00;;;11.80;99.90;;;;;;5063892;28;20190;-62
2022/10/22 02:56:52;;;;;;;1.40;1.30;;;11.80;99.90;;;;;;5067930;28;20575;-62
2022/10/22 02:59:17;;;;;;;6.40;1.50;;;11.80;99.90;;;;;;5069124;28;20176;-62
2022/10/22 03:01:43;;;;;;;3.07;1.57;;;11.90;99.90;;;;;;5070001;28;20184;-61
2022/10/22 03:04:08;;;;;;;1.93;1.20;;;11.90;99.90;;;;;;5070594;28;20213;-62
2022/10/22 03:06:34;;;;;;;2.43;1.00;;;11.90;99.90;;;;;;5068038;28;20205;-62
2022/10/22 03:09:00;;;;;;;1.33;1.03;;;11.90;99.90;;;;;;5066948;28;20158;-62
2022/10/22 03:11:25;;;;;;;3.20;1.20;;;11.90;99.90;;;;;;5070855;28;20640;-62
2022/10/22 03:13:51;;;;;;;1.80;1.20;;;11.90;99.90;;;;;;5067723;28;20195;-62
2022/10/22 03:16:16;;;;;;;2.60;1.23;;;11.90;99.90;;;;;;5064683;28;20171;-62
2022/10/22 03:18:42;;;;;;;1.50;1.30;;;11.90;99.90;;;;;;5077230;28;20181;-61
2022/10/22 03:21:32;;;;;;;7.53;1.30;;;11.90;99.90;;;;;;5074243;28;20641;-62
2022/10/22 03:24:01;;;;;;;1.63;1.10;;;11.90;99.90;;;;;;5064474;28;20206;-62
2022/10/22 03:26:26;;;;;;;3.13;1.50;;;12.00;99.90;;;;;;5069313;28;20509;-59
2022/10/22 03:28:53;;;;;;;4.67;1.30;;;12.00;99.90;;;;;;5069242;28;20421;-60
2022/10/22 03:31:18;;;;;;;1.10;1.10;;;12.00;99.90;;;;;;5067906;28;20300;-61
2022/10/22 03:33:44;;;;;;;1.37;1.10;;;12.00;99.90;;;;;;5066090;28;20492;-60
2022/10/22 03:36:10;;;;;;;2.30;1.00;;;12.00;99.90;;;;;;5069617;28;20269;-61
2022/10/22 03:38:37;;;;;;;3.60;1.20;;;12.00;99.90;;;;;;5069875;28;20185;-60
2022/10/22 03:41:03;;;;;;;2.13;1.00;;;12.00;99.90;;;;;;5067275;28;20174;-61
2022/10/22 03:43:29;;;;;;;6.03;1.70;;;12.00;99.90;;;;;;5068412;28;20528;-60
2022/10/22 03:45:54;;;;;;;2.97;1.40;;;12.00;99.90;;;;;;5070778;28;20214;-60
2022/10/22 03:48:20;;;;;;;2.30;2.10;;;12.00;99.90;;;;;;5071955;28;20202;-60
2022/10/22 03:50:46;;;;;;;6.73;1.60;;;12.00;99.90;;;;;;5070492;28;20174;-60
2022/10/22 03:53:11;;;;;;;1.40;1.30;;;12.00;99.90;;;;;;5068611;28;20273;-60
2022/10/22 03:55:39;;;;;;;2.03;1.83;;;12.00;99.90;;;;;;5067426;28;20241;-60
2022/10/22 03:58:05;;;;;;;1.60;1.50;;;12.00;99.90;;;;;;5070630;28;20174;-60
2022/10/22 04:00:31;;;;;;;1.70;1.60;;;12.00;99.90;;;;;;5065042;28;20443;-60
2022/10/22 04:02:56;;;;;;;1.40;1.30;;;12.00;99.90;;;;;;5059939;28;20179;-59
2022/10/22 04:05:22;;;;;;;2.43;1.63;;;12.00;99.90;;;;;;5062994;28;20194;-61
2022/10/22 04:07:48;;;;;;;3.20;2.67;;;12.00;99.90;;;;;;5063498;28;20178;-58
2022/10/22 04:10:14;;;;;;;2.07;1.97;;;12.00;99.90;;;;;;5064088;28;20186;-59
2022/10/22 04:12:39;;;;;;;6.80;1.90;;;12.00;99.90;;;;;;5062871;28;20185;-60
2022/10/22 04:15:05;;;;;;;3.17;2.87;;;12.00;99.90;;;;;;5063930;28;20210;-58
2022/10/22 04:17:35;;;;;;;1.93;1.73;;;12.00;99.90;;;;;;5064238;28;20693;-58
2022/10/22 04:20:02;;;;;;;3.20;2.00;;;12.00;99.90;;;;;;5064583;28;20436;-59
2022/10/22 04:22:28;;;;;;;4.53;2.17;;;12.00;99.90;;;;;;5065274;28;20436;-58
2022/10/22 04:24:53;;;;;;;3.10;1.87;;;12.00;99.90;;;;;;5060162;28;20463;-59
2022/10/22 04:27:19;;;;;;;2.53;2.33;;;12.00;99.90;;;;;;5064189;28;20717;-63
2022/10/22 04:29:45;;;;;;;7.20;2.60;;;12.00;99.90;;;;;;5061056;28;20174;-59
2022/10/22 04:32:10;;;;;;;8.93;2.40;;;12.00;99.90;;;;;;5062714;28;20700;-59
2022/10/22 04:34:36;;;;;;;2.57;2.10;;;12.00;99.90;;;;;;5065826;28;20273;-59
2022/10/22 04:37:02;;;;;;;1.80;1.70;;;12.00;99.90;;;;;;5063367;28;21678;-59
2022/10/22 04:39:27;;;;;;;2.90;2.00;;;12.10;99.90;;;;;;5063263;28;20174;-58
2022/10/22 04:41:53;;;;;;;4.67;1.90;;;12.00;99.90;;;;;;5060867;28;20436;-59
2022/10/22 04:44:19;;;;;;;1.90;1.70;;;12.00;99.90;;;;;;5064560;28;20203;-58
2022/10/22 04:46:44;;;;;;;3.73;1.90;;;12.00;99.90;;;;;;5057132;28;20696;-59
2022/10/22 04:49:10;;;;;;;5.17;2.30;;;12.00;99.90;;;;;;5061448;28;20726;-59
2022/10/22 04:51:36;;;;;;;4.10;2.20;;;12.00;99.90;;;;;;5064931;28;20178;-59
2022/10/22 04:54:02;;;;;;;4.83;2.53;;;12.00;99.90;;;;;;5063294;28;20620;-59
2022/10/22 04:56:29;;;;;;;2.50;1.97;;;12.00;99.90;;;;;;5060012;28;20186;-59
2022/10/22 04:59:01;;;;;;;4.60;2.50;;;12.00;99.90;;;;;;5065447;28;20467;-59
2022/10/22 05:01:29;;;;;;;5.63;2.60;;;12.00;99.90;;;;;;5063014;28;20436;-59
2022/10/22 05:03:57;;;;;;;5.07;2.83;;;12.00;99.90;;;;;;5061514;28;20456;-59
2022/10/22 05:06:23;;;;;;;6.80;4.17;;;12.00;99.90;;;;;;5057883;28;20456;-58
2022/10/22 05:08:55;;;;;;;4.83;3.77;;;12.00;99.90;;;;;;5060122;28;20443;-59
2022/10/22 05:11:23;;;;;;;4.70;3.00;;;12.00;99.90;;;;;;5064391;28;20432;-60
2022/10/22 05:13:48;;;;;;;5.40;3.67;;;12.00;99.90;;;;;;5063271;28;20445;-60
2022/10/22 05:16:14;;;;;;;4.77;3.47;;;12.00;99.90;;;;;;5059769;28;20449;-59
2022/10/22 05:18:42;;;;;;;5.77;3.80;;;12.00;99.90;;;;;;5065726;28;20556;-60
2022/10/22 05:21:09;;;;;;;8.23;3.73;;;12.00;99.90;;;;;;5066931;28;20217;-60
2022/10/22 05:23:35;;;;;;;6.67;4.23;;;12.00;99.90;;;;;;5063950;28;20547;-59
2022/10/22 05:26:02;;;;;;;9.13;4.83;;;12.00;99.90;;;;;;5063522;28;20584;-60
2022/10/22 05:28:28;;;;;;;5.27;3.77;;;12.00;99.90;;;;;;5065138;28;20171;-61
2022/10/22 05:30:59;;;;;;;9.37;4.60;;;12.00;99.90;;;;;;5061252;28;20443;-61
2022/10/22 05:33:26;;;;;;;10.53;5.40;;;12.00;99.90;;;;;;5069948;28;20510;-60
2022/10/22 05:35:52;;;;;;;14.67;6.60;;;12.00;99.90;;;;;;5066844;28;20456;-61
2022/10/22 05:38:18;;;;;;;13.13;6.40;;;12.00;99.90;;;;;;5066386;28;21183;-60
2022/10/22 05:40:44;;;;;;;14.30;6.90;;;12.00;99.90;;;;;;5068517;28;20436;-61
2022/10/22 05:43:10;;;;;;;18.50;6.10;;;12.00;99.90;;;;;;5058794;28;20191;-61
2022/10/22 05:45:37;;;;;;;17.23;6.20;;;12.00;99.90;;;;;;5069726;28;20205;-61
2022/10/22 05:48:03;;;;;;;14.40;6.13;;;12.00;99.90;;;;;;5065832;28;20436;-61
2022/10/22 05:50:29;;;;;;;13.80;6.60;;;12.00;99.90;;;;;;5061575;28;20440;-61
2022/10/22 05:52:54;;;;;;;13.53;6.70;;;12.00;99.90;;;;;;5059505;28;20450;-60
2022/10/22 05:55:20;;;;;;;11.37;6.27;;;12.00;99.90;;;;;;5061856;28;20695;-60
2022/10/22 05:57:48;;;;;;;17.43;5.83;;;12.00;99.90;;;;;;5062413;28;20186;-60
2022/10/22 06:00:14;;;;;;;11.43;6.17;;;12.00;99.90;;;;;;5061527;28;20178;-60
2022/10/22 06:02:39;;;;;;;15.37;7.07;;;12.00;99.90;;;;;;5062063;28;20967;-61
2022/10/22 06:05:05;;;;;;;15.47;7.10;;;12.00;99.90;;;;;;5064219;28;20501;-61
2022/10/22 06:07:32;;;;;;;12.00;6.53;;;12.10;99.90;;;;;;5061554;28;20570;-62
2022/10/22 06:09:58;;;;;;;16.50;7.07;;;12.00;99.90;;;;;;5061996;28;20186;-61
2022/10/22 06:12:24;;;;;;;15.20;7.60;;;12.10;99.90;;;;;;5062556;28;20502;-61
2022/10/22 06:14:50;;;;;;;10.37;6.70;;;12.10;99.90;;;;;;5063925;28;20475;-61
2022/10/22 06:17:15;;;;;;;11.37;7.10;;;12.10;99.90;;;;;;5062080;28;20839;-61
2022/10/22 06:19:41;;;;;;;13.03;6.60;;;12.10;99.90;;;;;;5063050;28;20185;-61
2022/10/22 06:22:07;;;;;;;13.47;6.60;;;12.10;99.90;;;;;;5064587;28;20206;-62
2022/10/22 06:24:32;;;;;;;12.47;6.60;;;12.10;99.90;;;;;;5058515;28;20617;-60
2022/10/22 06:26:58;;;;;;;9.20;5.33;;;12.10;99.90;;;;;;5061940;28;20238;-62
2022/10/22 06:29:23;;;;;;;10.30;6.07;;;12.10;99.90;;;;;;5062309;28;20237;-61
2022/10/22 06:31:50;;;;;;;12.30;7.00;;;12.10;99.90;;;;;;5067058;28;20239;-61
2022/10/22 06:34:17;;;;;;;11.70;6.50;;;12.10;99.90;;;;;;5068007;28;20198;-61
2022/10/22 06:36:44;;;;;;;11.10;5.80;;;12.20;99.90;;;;;;5066080;28;20662;-62
2022/10/22 06:39:14;;;;;;;13.33;6.33;;;12.20;99.90;;;;;;5053980;28;20513;-62
2022/10/22 06:41:40;;;;;;;8.70;5.83;;;12.20;99.90;;;;;;5062978;28;20443;-62
2022/10/22 06:44:06;;;;;;;9.47;6.23;;;12.20;99.90;;;;;;5067096;28;20531;-61
2022/10/22 06:46:31;;;;;;;10.97;6.80;;;12.20;99.90;;;;;;5058838;28;20457;-62
2022/10/22 06:49:01;;;;;;;12.33;7.03;;;12.20;99.90;;;;;;5066721;28;20655;-60
2022/10/22 06:51:28;;;;;;;7.47;5.70;;;12.20;99.90;;;;;;5063673;28;20204;-59
2022/10/22 06:53:55;;;;;;;10.17;6.10;;;12.10;99.90;;;;;;5062700;28;20452;-59
2022/10/22 06:56:23;;;;;;;12.70;6.20;;;12.20;99.90;;;;;;5065463;28;20889;-60
2022/10/22 06:58:50;;;;;;;4.90;4.10;;;12.20;99.90;;;;;;5063074;28;20440;-60
2022/10/22 07:01:17;;;;;;;5.90;4.03;;;12.20;99.90;;;;;;5063904;28;20447;-61
2022/10/22 07:03:43;;;;;;;5.57;4.43;;;12.20;99.90;;;;;;5076588;28;20451;-61
2022/10/22 07:06:12;;;;;;;5.77;4.23;;;12.20;99.90;;;;;;5064515;28;20547;-61
2022/10/22 07:08:39;;;;;;;4.80;4.00;;;12.20;99.90;;;;;;5064007;28;20680;-61
2022/10/22 07:11:20;;;;;;;8.87;5.10;;;12.30;99.90;;;;;;5066032;28;22410;-61
2022/10/22 07:13:46;;;;;;;9.30;4.87;;;12.30;99.90;;;;;;5056122;28;20483;-61
2022/10/22 07:16:13;;;;;;;10.47;5.23;;;12.30;99.90;;;;;;5061671;28;20511;-62
2022/10/22 07:18:39;;;;;;;7.00;4.83;;;12.30;99.90;;;;;;5063194;28;20433;-62
2022/10/22 07:21:06;;;;;;;8.60;4.90;;;12.30;99.90;;;;;;5071272;28;20432;-63
2022/10/22 07:23:32;;;;;;;6.50;4.40;;;12.30;99.90;;;;;;5064070;28;20543;-61
2022/10/22 07:25:58;;;;;;;11.23;5.33;;;12.30;99.90;;;;;;5059411;28;20548;-60
2022/10/22 07:28:24;;;;;;;5.70;4.33;;;12.30;99.90;;;;;;5065911;28;20186;-61
2022/10/22 07:30:49;;;;;;;5.60;4.43;;;12.30;99.90;;;;;;5060434;28;20183;-61
2022/10/22 07:33:15;;;;;;;7.70;4.93;;;12.40;99.90;;;;;;5065830;28;20429;-60
2022/10/22 07:35:41;;;;;;;8.50;5.27;;;12.40;99.90;;;;;;5071179;28;20655;-61
2022/10/22 07:38:08;;;;;;;9.40;5.20;;;12.40;99.90;;;;;;5071791;28;20178;-61
2022/10/22 07:40:34;;;;;;;9.57;5.50;;;12.40;99.90;;;;;;5066193;28;20182;-61
2022/10/22 07:43:00;;;;;;;6.83;5.20;;;12.40;99.90;;;;;;5067952;28;20420;-61
2022/10/22 07:45:26;;;;;;;8.30;5.20;;;12.40;99.90;;;;;;5076642;28;20455;-62
2022/10/22 07:47:51;;;;;;;9.13;5.90;;;12.40;99.90;;;;;;5065139;28;20465;-61
2022/10/22 07:50:17;;;;;;;9.53;6.10;;;12.40;99.90;;;;;;5067602;28;20205;-61
2022/10/22 07:52:43;;;;;;;12.17;7.40;;;12.40;99.90;;;;;;5069615;28;20667;-61
2022/10/22 07:55:09;;;;;;;8.80;6.50;;;12.40;99.90;;;;;;5068930;28;20448;-62
2022/10/22 07:57:36;;;;;;;11.10;7.20;;;12.40;99.90;;;;;;5071864;28;20186;-61
2022/10/22 08:00:04;;;;;;;11.93;7.10;;;12.50;99.90;;;;;;5066752;28;20193;-61
2022/10/22 08:02:30;;;;;;;12.10;7.03;;;12.50;99.90;;;;;;5068306;28;20930;-61
2022/10/22 08:04:55;;;;;;;13.03;6.80;;;12.50;99.90;;;;;;5059710;28;20460;-61
2022/10/22 08:07:22;;;;;;;12.70;8.03;;;12.60;99.90;;;;;;5067196;28;20202;-61
2022/10/22 08:09:47;;;;;;;14.80;8.17;;;12.60;99.90;;;;;;5069942;28;20428;-61
2022/10/22 08:12:13;;;;;;;11.03;6.80;;;12.70;99.90;;;;;;5069557;28;20433;-61
2022/10/22 08:14:38;;;;;;;11.13;7.10;;;12.70;99.90;;;;;;5063200;28;20315;-61
2022/10/22 08:17:04;;;;;;;13.90;9.47;;;12.70;99.90;;;;;;5065616;28;20206;-61
2022/10/22 08:19:31;;;;;;;12.20;7.10;;;12.70;99.90;;;;;;5073987;28;20541;-61
2022/10/22 08:21:57;;;;;;;10.33;6.70;;;12.70;99.90;;;;;;5073458;28;20190;-61
2022/10/22 08:24:23;;;;;;;11.53;8.10;;;12.70;99.90;;;;;;5064830;28;20457;-61
2022/10/22 08:26:49;;;;;;;9.77;6.63;;;12.80;99.90;;;;;;5066370;28;21112;-61
2022/10/22 08:29:14;;;;;;;11.70;7.00;;;12.80;99.90;;;;;;5067187;28;20186;-61
2022/10/22 08:31:40;;;;;;;7.87;6.90;;;12.80;99.90;;;;;;5069288;28;20640;-60
2022/10/22 08:34:07;;;;;;;10.00;6.30;;;12.90;99.90;;;;;;5061609;28;20209;-62
2022/10/22 08:36:33;;;;;;;8.90;5.93;;;12.90;99.90;;;;;;5068915;28;20186;-60
2022/10/22 08:38:58;;;;;;;8.63;6.03;;;13.00;99.90;;;;;;5069135;28;20803;-62
2022/10/22 08:41:24;;;;;;;7.20;5.47;;;13.00;99.90;;;;;;5063609;28;20443;-61
2022/10/22 08:44:19;;;;;;;8.80;5.87;;;13.10;99.90;;;;;;5067470;28;20213;-62
2022/10/22 08:46:53;;;;;;;6.37;5.37;;;13.20;99.90;;;;;;5068456;28;20460;-61
2022/10/22 08:49:25;;;;;;;7.17;5.40;;;13.20;99.90;;;;;;5066365;28;20787;-61
2022/10/22 08:51:51;;;;;;;9.20;5.20;;;13.30;99.90;;;;;;5065055;28;20460;-61
2022/10/22 08:54:44;;;;;;;13.20;5.10;;;13.40;99.90;;;;;;5058290;28;20809;-62
2022/10/22 08:57:38;;;;;;;6.40;5.20;;;13.50;99.90;;;;;;5062007;28;20464;-66
2022/10/22 09:00:21;;;;;;;5.50;4.40;;;13.60;99.90;;;;;;5075696;28;20433;-67
2022/10/22 09:03:11;;;;;;;4.20;3.80;;;13.70;99.90;;;;;;5059928;28;20439;-64
2022/10/22 09:05:54;;;;;;;7.20;4.27;;;13.70;99.90;;;;;;5062063;28;20444;-63
2022/10/22 09:08:20;;;;;;;5.60;4.40;;;13.70;99.90;;;;;;5063140;28;20436;-62
2022/10/22 09:11:00;;;;;;;6.30;3.60;;;13.80;99.90;;;;;;5062385;28;20435;-59
2022/10/22 09:13:26;;;;;;;5.37;4.40;;;13.90;99.90;;;;;;5058397;28;20425;-62
2022/10/22 09:15:56;;;;;;;5.07;4.00;;;14.00;99.90;;;;;;5062491;28;20471;-62
2022/10/22 09:18:46;;;;;;;6.10;4.00;;;14.20;99.90;;;;;;5063016;28;20225;-63
2022/10/22 09:21:38;;;;;;;9.03;4.27;;;14.30;99.90;;;;;;5061827;28;20958;-62
2022/10/22 09:24:19;;;;;;;4.17;3.43;;;14.60;99.90;;;;;;5058367;28;20456;-61
2022/10/22 09:26:44;;;;;;;5.23;3.40;;;14.70;99.90;;;;;;5076712;28;20460;-62
2022/10/22 09:29:32;;;;;;;4.20;3.70;;;14.80;99.90;;;;;;5067196;28;21106;-62
2022/10/22 09:31:58;;;;;;;3.50;3.07;;;14.90;99.90;;;;;;5066549;28;20546;-62
2022/10/22 09:34:24;;;;;;;7.00;3.53;;;14.90;99.90;;;;;;5065099;28;20451;-62
2022/10/22 09:37:07;;;;;;;3.20;2.77;;;14.80;99.90;;;;;;5063470;28;20265;-62
2022/10/22 09:39:36;;;;;;;3.97;2.70;;;14.80;99.90;;;;;;5066413;28;20193;-62
2022/10/22 09:42:02;;;;;;;5.30;3.00;;;14.90;99.90;;;;;;5066041;28;20520;-61
2022/10/22 09:44:28;;;;;;;6.13;3.03;;;14.80;99.90;;;;;;5065333;28;20456;-61
2022/10/22 09:46:53;;;;;;;2.67;2.33;;;14.80;99.90;;;;;;5066878;28;20827;-62
2022/10/22 09:49:22;;;;;;;2.83;2.30;;;14.80;99.90;;;;;;5054572;28;21041;-62
2022/10/22 09:51:59;;;;;;;5.50;2.40;;;14.80;99.90;;;;;;5054372;28;20658;-62
2022/10/22 09:54:30;;;;;;;5.53;2.00;;;15.10;99.90;;;;;;5053977;28;20445;-62
2022/10/22 09:57:20;;;;;;;5.57;2.50;;;15.30;99.90;;;;;;5060861;28;20434;-65
2022/10/22 09:59:50;;;;;;;3.93;2.30;;;15.50;99.90;;;;;;5059747;28;20939;-65
2022/10/22 10:02:25;;;;;;;3.37;2.13;;;15.70;99.90;;;;;;5062323;28;20478;-65
2022/10/22 10:04:54;;;;;;;1.93;1.63;;;15.90;99.90;;;;;;5061660;28;20502;-65
2022/10/22 10:07:25;;;;;;;5.10;2.30;;;16.10;99.90;;;;;;5067543;28;20456;-64
2022/10/22 10:09:52;;;;;;;6.67;1.90;;;16.20;99.90;;;;;;5066661;28;20425;-64
2022/10/22 10:12:25;;;;;;;3.43;2.10;;;16.40;99.90;;;;;;5070143;28;20432;-65
2022/10/22 10:15:03;;;;;;;3.87;2.87;;;16.50;99.90;;;;;;5065850;28;20456;-65
2022/10/22 10:17:38;;;;;;;3.03;1.97;;;16.60;99.90;;;;;;5068437;28;20440;-65
2022/10/22 10:20:23;;;;;;;3.20;2.10;;;16.60;99.90;;;;;;5077974;28;20548;-64
2022/10/22 10:23:00;;;;;;;9.80;1.90;;;16.70;99.90;;;;;;5060459;28;20412;-65
2022/10/22 10:25:44;;;;;;;3.80;1.93;;;16.80;99.90;;;;;;5066367;28;20447;-64
2022/10/22 10:28:24;;;;;;;1.90;1.70;;;16.80;99.90;;;;;;5067956;28;20425;-65
2022/10/22 10:31:08;;;;;;;2.80;2.03;;;17.00;99.90;;;;;;5049406;28;20845;-65
2022/10/22 10:33:59;;;;;;;4.03;1.80;;;17.10;99.90;;;;;;5066027;28;20456;-66
2022/10/22 10:36:38;;;;;;;5.83;2.00;;;17.20;99.90;;;;;;5069699;28;20809;-64
2022/10/22 10:39:43;;;;;;;6.57;2.47;;;17.30;99.90;;;;;;5068028;28;20452;-65
2022/10/22 10:42:32;;;;;;;2.40;2.00;;;17.50;99.90;;;;;;5062857;28;20424;-65
2022/10/22 10:45:05;;;;;;;1.63;1.40;;;17.70;99.90;;;;;;5065584;28;20504;-65
2022/10/22 10:48:09;;;;;;;2.80;1.90;;;17.80;99.90;;;;;;5068102;28;21136;-66
2022/10/22 10:50:50;;;;;;;2.47;1.90;;;17.80;99.90;;;;;;5062161;28;20462;-64
2022/10/22 10:53:38;;;;;;;17.97;2.23;;;17.70;99.90;;;;;;5063125;28;20428;-64
2022/10/22 10:56:13;;;;;;;2.07;1.50;;;17.70;99.90;;;;;;5069141;28;20418;-64
2022/10/22 10:59:11;;;;;;;2.03;1.70;;;17.60;99.90;;;;;;5076721;28;20520;-64
2022/10/22 11:01:44;;;;;;;6.57;2.33;;;17.50;99.90;;;;;;5067397;28;20432;-65
2022/10/22 11:04:48;;;;;;;10.33;1.73;;;17.30;99.90;;;;;;5067934;28;20951;-65
2022/10/22 11:07:22;;;;;;;5.70;1.80;;;17.40;99.90;;;;;;5057520;28;20465;-65
2022/10/22 11:09:55;;;;;;;3.27;2.07;;;17.50;99.90;;;;;;5060822;28;20444;-65
2022/10/22 11:12:26;;;;;;;2.80;1.60;;;17.70;99.90;;;;;;5066119;28;20464;-65
2022/10/22 11:15:19;;;;;;;9.03;1.77;;;17.60;99.90;;;;;;5068128;28;20970;-65
2022/10/22 11:17:46;;;;;;;3.20;1.90;;;17.70;99.90;;;;;;5069411;28;21162;-65
2022/10/22 11:20:23;;;;;;;5.67;1.80;;;17.90;99.90;;;;;;5072730;28;20499;-65
2022/10/22 11:23:00;;;;;;;4.73;1.93;;;18.10;99.90;;;;;;5068790;28;20813;-65
2022/10/22 11:25:44;;;;;;;8.03;2.20;;;18.20;99.90;;;;;;5068865;28;21103;-65
2022/10/22 11:28:30;;;;;;;2.00;1.70;;;18.30;99.90;;;;;;5072140;28;20926;-66
2022/10/22 11:31:01;;;;;;;5.17;2.03;;;18.60;98.90;;;;;;5069233;28;20429;-65
2022/10/22 11:33:37;;;;;;;2.27;1.67;;;19.10;99.30;;;;;;5074720;28;20507;-66
2022/10/22 11:36:05;;;;;;;3.00;1.43;;;20.00;90.10;;;;;;5068399;28;20420;-64
2022/10/22 11:38:33;;;;;;;4.70;1.60;;;20.80;78.10;;;;;;5056462;28;22204;-64
2022/10/22 11:41:12;;;;;;;1.80;1.50;;;20.80;67.20;;;;;;5053896;28;20456;-61
2022/10/22 11:43:55;;;;;;;3.80;1.50;;;20.80;70.30;;;;;;5059782;28;20645;-60
2022/10/22 11:46:20;;;;;;;4.43;1.63;;;21.20;66.60;;;;;;5056377;28;20464;-61
2022/10/22 11:49:05;;;;;;;2.90;2.27;;;21.10;64.80;;;;;;5063344;28;20473;-61
2022/10/22 11:51:36;;;;;;;14.10;2.53;;;20.80;66.20;;;;;;5066877;28;20171;-61
2022/10/22 11:54:28;;;;;;;2.53;1.50;;;21.20;64.90;;;;;;5061334;28;20531;-61
2022/10/22 11:57:14;;;;;;;7.10;2.50;;;21.50;63.40;;;;;;5057543;28;20996;-61
2022/10/22 11:59:46;;;;;;;4.10;1.30;;;22.10;63.00;;;;;;5068212;28;20489;-60
2022/10/22 12:02:26;;;;;;;3.73;1.60;;;22.00;61.40;;;;;;5056851;28;20440;-63
2022/10/22 12:04:54;;;;;;;3.13;1.30;;;22.20;59.10;;;;;;5050459;28;20535;-60
2022/10/22 12:07:48;;;;;;;6.93;1.70;;;22.40;57.10;;;;;;5054785;28;20499;-59
2022/10/22 12:10:27;;;;;;;5.00;1.40;;;22.30;56.70;;;;;;5067771;28;20581;-61
2022/10/22 12:13:15;;;;;;;1.93;1.20;;;22.40;57.50;;;;;;5058922;28;20428;-59
2022/10/22 12:15:50;;;;;;;5.53;1.60;;;22.00;58.50;;;;;;5057720;28;20487;-60
2022/10/22 12:18:16;;;;;;;3.97;1.47;;;22.00;59.10;;;;;;5055705;28;20437;-61
2022/10/22 12:20:42;;;;;;;3.80;1.90;;;21.80;59.20;;;;;;5052058;28;20484;-60
2022/10/22 12:23:12;;;;;;;6.00;2.03;;;21.70;59.10;;;;;;5054311;28;20416;-60
2022/10/22 12:25:38;;;;;;;1.90;1.50;;;21.70;58.90;;;;;;5054776;28;20460;-60
2022/10/22 12:28:09;;;;;;;6.90;1.97;;;21.50;59.90;;;;;;5054909;28;20460;-61
2022/10/22 12:30:35;;;;;;;4.83;1.37;;;21.80;62.30;;;;;;5054494;28;20273;-62
2022/10/22 12:33:05;;;;;;;5.80;1.60;;;22.70;58.70;;;;;;5051091;28;20443;-56
2022/10/22 12:35:34;;;;;;;3.73;1.70;;;23.00;56.50;;;;;;5051569;28;20470;-61
2022/10/22 12:38:03;;;;;;;1.67;1.30;;;22.70;57.10;;;;;;5056551;28;20432;-63
2022/10/22 12:40:33;;;;;;;2.53;1.57;;;22.30;58.00;;;;;;5060070;28;20933;-63
2022/10/22 12:43:10;;;;;;;2.80;1.60;;;22.40;58.40;;;;;;5065825;28;20459;-64
2022/10/22 12:45:37;;;;;;;2.80;1.37;;;22.70;57.10;;;;;;5064735;28;20452;-63
2022/10/22 12:48:21;;;;;;;3.43;1.80;;;22.30;56.90;;;;;;5067295;28;20456;-62
2022/10/22 12:50:53;;;;;;;3.40;1.80;;;21.70;59.10;;;;;;5064109;28;20509;-62
2022/10/22 12:53:20;;;;;;;2.97;1.70;;;21.10;61.20;;;;;;5064306;28;20563;-61
2022/10/22 12:55:48;;;;;;;9.27;1.80;;;20.50;62.60;;;;;;5067860;28;20455;-62
2022/10/22 12:58:21;;;;;;;7.43;2.60;;;20.10;64.00;;;;;;5067223;28;20429;-63
2022/10/22 13:00:47;;;;;;;7.90;2.83;;;19.90;70.80;;;;;;5065953;28;20479;-62
2022/10/22 13:03:29;;;;;;;5.60;2.07;;;20.10;75.60;;;;;;5063758;28;20935;-63
2022/10/22 13:05:54;;;;;;;5.97;3.27;;;20.80;77.10;;;;;;5064966;28;20922;-63